sensor_id;sensor_type;location;lat;lon;timestamp;P1;durP1;ratioP1;P2;durP2;ratioP2
64917;SDS011;52176;44.858;38.372;2023-03-08T00:06:02;6.40;;;3.10;;
64917;SDS011;52176;44.858;38.372;2023-03-08T00:08:32;4.60;;;2.90;;
64917;SDS011;52176;44.858;38.372;2023-03-08T00:10:58;6.15;;;3.08;;
64917;SDS011;52176;44.858;38.372;2023-03-08T00:18:17;5.55;;;2.60;;
64917;SDS011;52176;44.858;38.372;2023-03-08T00:20:43;6.30;;;2.80;;
64917;SDS011;52176;44.858;38.372;2023-03-08T00:23:09;4.40;;;2.90;;
64917;SDS011;52176;44.858;38.372;2023-03-08T00:25:35;5.55;;;2.50;;
64917;SDS011;52176;44.858;38.372;2023-03-08T00:28:01;4.70;;;2.60;;
64917;SDS011;52176;44.858;38.372;2023-03-08T00:30:29;4.70;;;3.00;;
64917;SDS011;52176;44.858;38.372;2023-03-08T00:32:55;4.00;;;2.60;;
64917;SDS011;52176;44.858;38.372;2023-03-08T00:35:21;3.70;;;2.80;;
64917;SDS011;52176;44.858;38.372;2023-03-08T00:47:32;5.60;;;2.85;;
64917;SDS011;52176;44.858;38.372;2023-03-08T00:54:51;7.40;;;2.90;;
64917;SDS011;52176;44.858;38.372;2023-03-08T00:57:17;3.70;;;2.30;;
64917;SDS011;52176;44.858;38.372;2023-03-08T01:02:10;3.90;;;2.50;;
64917;SDS011;52176;44.858;38.372;2023-03-08T01:04:38;4.15;;;2.55;;
64917;SDS011;52176;44.858;38.372;2023-03-08T01:07:04;7.40;;;2.85;;
64917;SDS011;52176;44.858;38.372;2023-03-08T01:09:30;3.90;;;2.60;;
64917;SDS011;52176;44.858;38.372;2023-03-08T01:11:56;5.80;;;2.50;;
64917;SDS011;52176;44.858;38.372;2023-03-08T01:14:22;4.50;;;2.30;;
64917;SDS011;52176;44.858;38.372;2023-03-08T01:16:48;6.20;;;2.90;;
64917;SDS011;52176;44.858;38.372;2023-03-08T01:19:15;4.30;;;2.50;;
64917;SDS011;52176;44.858;38.372;2023-03-08T01:21:41;6.05;;;2.50;;
64917;SDS011;52176;44.858;38.372;2023-03-08T01:24:07;4.80;;;2.50;;
64917;SDS011;52176;44.858;38.372;2023-03-08T01:26:33;4.07;;;2.80;;
64917;SDS011;52176;44.858;38.372;2023-03-08T01:28:59;4.10;;;2.50;;
64917;SDS011;52176;44.858;38.372;2023-03-08T01:31:27;3.97;;;2.50;;
64917;SDS011;52176;44.858;38.372;2023-03-08T01:33:55;4.60;;;2.50;;
64917;SDS011;52176;44.858;38.372;2023-03-08T01:36:23;4.70;;;2.60;;
64917;SDS011;52176;44.858;38.372;2023-03-08T01:38:50;5.15;;;2.30;;
64917;SDS011;52176;44.858;38.372;2023-03-08T01:41:21;3.70;;;2.40;;
64917;SDS011;52176;44.858;38.372;2023-03-08T01:43:50;3.40;;;2.20;;
64917;SDS011;52176;44.858;38.372;2023-03-08T01:46:24;4.20;;;2.30;;
64917;SDS011;52176;44.858;38.372;2023-03-08T01:49:25;3.90;;;2.25;;
64917;SDS011;52176;44.858;38.372;2023-03-08T01:54:22;3.10;;;2.30;;
64917;SDS011;52176;44.858;38.372;2023-03-08T01:57:00;4.00;;;2.17;;
64917;SDS011;52176;44.858;38.372;2023-03-08T01:59:31;3.70;;;2.20;;
64917;SDS011;52176;44.858;38.372;2023-03-08T02:01:59;5.10;;;2.55;;
64917;SDS011;52176;44.858;38.372;2023-03-08T02:04:27;4.60;;;2.30;;
64917;SDS011;52176;44.858;38.372;2023-03-08T02:06:54;4.40;;;2.08;;
64917;SDS011;52176;44.858;38.372;2023-03-08T02:09:22;3.75;;;2.35;;
64917;SDS011;52176;44.858;38.372;2023-03-08T02:11:51;3.90;;;2.40;;
64917;SDS011;52176;44.858;38.372;2023-03-08T02:14:17;3.78;;;2.03;;
64917;SDS011;52176;44.858;38.372;2023-03-08T02:16:47;3.70;;;2.20;;
64917;SDS011;52176;44.858;38.372;2023-03-08T02:19:16;2.37;;;1.80;;
64917;SDS011;52176;44.858;38.372;2023-03-08T02:21:52;4.40;;;2.60;;
64917;SDS011;52176;44.858;38.372;2023-03-08T02:24:19;3.10;;;2.40;;
64917;SDS011;52176;44.858;38.372;2023-03-08T02:26:46;3.15;;;2.30;;
64917;SDS011;52176;44.858;38.372;2023-03-08T02:29:14;3.30;;;2.08;;
64917;SDS011;52176;44.858;38.372;2023-03-08T02:31:40;3.15;;;2.30;;
64917;SDS011;52176;44.858;38.372;2023-03-08T02:34:06;4.15;;;2.30;;
64917;SDS011;52176;44.858;38.372;2023-03-08T02:36:32;3.85;;;2.42;;
64917;SDS011;52176;44.858;38.372;2023-03-08T02:38:58;2.90;;;2.20;;
64917;SDS011;52176;44.858;38.372;2023-03-08T02:41:27;2.90;;;1.90;;
64917;SDS011;52176;44.858;38.372;2023-03-08T02:43:53;3.38;;;2.25;;
64917;SDS011;52176;44.858;38.372;2023-03-08T02:48:44;5.35;;;2.50;;
64917;SDS011;52176;44.858;38.372;2023-03-08T02:51:11;4.93;;;2.37;;
64917;SDS011;52176;44.858;38.372;2023-03-08T02:53:37;5.40;;;2.40;;
64917;SDS011;52176;44.858;38.372;2023-03-08T02:56:03;3.63;;;2.30;;
64917;SDS011;52176;44.858;38.372;2023-03-08T02:58:29;4.20;;;2.60;;
64917;SDS011;52176;44.858;38.372;2023-03-08T03:00:55;3.50;;;2.37;;
64917;SDS011;52176;44.858;38.372;2023-03-08T03:03:22;4.40;;;2.75;;
64917;SDS011;52176;44.858;38.372;2023-03-08T03:05:49;4.97;;;2.70;;
64917;SDS011;52176;44.858;38.372;2023-03-08T03:08:21;4.68;;;2.63;;
64917;SDS011;52176;44.858;38.372;2023-03-08T03:10:47;3.90;;;2.20;;
64917;SDS011;52176;44.858;38.372;2023-03-08T03:13:13;3.90;;;2.70;;
64917;SDS011;52176;44.858;38.372;2023-03-08T03:15:40;3.95;;;2.50;;
64917;SDS011;52176;44.858;38.372;2023-03-08T03:18:06;6.13;;;2.90;;
64917;SDS011;52176;44.858;38.372;2023-03-08T03:20:33;4.20;;;2.60;;
64917;SDS011;52176;44.858;38.372;2023-03-08T03:22:59;7.35;;;2.60;;
64917;SDS011;52176;44.858;38.372;2023-03-08T03:25:36;3.90;;;2.70;;
64917;SDS011;52176;44.858;38.372;2023-03-08T03:28:05;3.90;;;2.50;;
64917;SDS011;52176;44.858;38.372;2023-03-08T03:30:33;4.10;;;2.60;;
64917;SDS011;52176;44.858;38.372;2023-03-08T03:33:00;4.70;;;2.80;;
64917;SDS011;52176;44.858;38.372;2023-03-08T03:35:29;4.45;;;2.45;;
64917;SDS011;52176;44.858;38.372;2023-03-08T03:37:56;4.13;;;2.77;;
64917;SDS011;52176;44.858;38.372;2023-03-08T03:40:22;3.65;;;2.30;;
64917;SDS011;52176;44.858;38.372;2023-03-08T03:42:53;3.85;;;2.30;;
64917;SDS011;52176;44.858;38.372;2023-03-08T03:45:20;3.90;;;2.50;;
64917;SDS011;52176;44.858;38.372;2023-03-08T03:47:46;4.20;;;2.50;;
64917;SDS011;52176;44.858;38.372;2023-03-08T03:50:13;8.30;;;2.60;;
64917;SDS011;52176;44.858;38.372;2023-03-08T03:52:49;4.80;;;2.50;;
64917;SDS011;52176;44.858;38.372;2023-03-08T03:55:15;4.77;;;2.67;;
64917;SDS011;52176;44.858;38.372;2023-03-08T03:57:44;3.95;;;2.28;;
64917;SDS011;52176;44.858;38.372;2023-03-08T04:00:14;4.67;;;2.50;;
64917;SDS011;52176;44.858;38.372;2023-03-08T04:02:43;6.40;;;2.50;;
64917;SDS011;52176;44.858;38.372;2023-03-08T04:05:12;5.45;;;2.75;;
64917;SDS011;52176;44.858;38.372;2023-03-08T04:07:38;3.20;;;2.50;;
64917;SDS011;52176;44.858;38.372;2023-03-08T04:12:33;5.35;;;2.25;;
64917;SDS011;52176;44.858;38.372;2023-03-08T04:14:59;2.55;;;2.05;;
64917;SDS011;52176;44.858;38.372;2023-03-08T04:17:28;3.90;;;2.50;;
64917;SDS011;52176;44.858;38.372;2023-03-08T04:19:54;5.45;;;2.80;;
64917;SDS011;52176;44.858;38.372;2023-03-08T04:22:21;7.30;;;3.30;;
64917;SDS011;52176;44.858;38.372;2023-03-08T04:27:23;4.90;;;2.60;;
64917;SDS011;52176;44.858;38.372;2023-03-08T04:29:50;10.50;;;2.80;;
64917;SDS011;52176;44.858;38.372;2023-03-08T04:39:47;4.47;;;2.50;;
64917;SDS011;52176;44.858;38.372;2023-03-08T04:49:41;5.53;;;2.75;;
64917;SDS011;52176;44.858;38.372;2023-03-08T04:54:35;5.93;;;3.10;;
64917;SDS011;52176;44.858;38.372;2023-03-08T05:11:52;3.58;;;2.40;;
64917;SDS011;52176;44.858;38.372;2023-03-08T05:14:20;5.53;;;2.20;;
64917;SDS011;52176;44.858;38.372;2023-03-08T05:16:47;3.33;;;2.25;;
64917;SDS011;52176;44.858;38.372;2023-03-08T05:19:13;5.43;;;2.65;;
64917;SDS011;52176;44.858;38.372;2023-03-08T05:21:47;5.15;;;2.70;;
64917;SDS011;52176;44.858;38.372;2023-03-08T05:28:07;2.85;;;2.00;;
64917;SDS011;52176;44.858;38.372;2023-03-08T05:30:34;3.33;;;2.25;;
64917;SDS011;52176;44.858;38.372;2023-03-08T05:33:00;4.97;;;2.50;;
64917;SDS011;52176;44.858;38.372;2023-03-08T05:35:26;3.28;;;2.38;;
64917;SDS011;52176;44.858;38.372;2023-03-08T05:37:54;2.92;;;2.03;;
64917;SDS011;52176;44.858;38.372;2023-03-08T05:40:20;4.25;;;2.17;;
64917;SDS011;52176;44.858;38.372;2023-03-08T05:42:47;4.25;;;2.08;;
64917;SDS011;52176;44.858;38.372;2023-03-08T05:45:14;5.35;;;1.90;;
64917;SDS011;52176;44.858;38.372;2023-03-08T05:47:40;3.38;;;2.30;;
64917;SDS011;52176;44.858;38.372;2023-03-08T05:50:08;5.30;;;1.80;;
64917;SDS011;52176;44.858;38.372;2023-03-08T05:52:37;2.72;;;1.65;;
64917;SDS011;52176;44.858;38.372;2023-03-08T05:55:04;3.83;;;2.40;;
64917;SDS011;52176;44.858;38.372;2023-03-08T06:17:14;4.95;;;1.70;;
64917;SDS011;52176;44.858;38.372;2023-03-08T06:19:45;5.97;;;1.83;;
64917;SDS011;52176;44.858;38.372;2023-03-08T06:22:11;22.48;;;2.15;;
64917;SDS011;52176;44.858;38.372;2023-03-08T06:24:40;3.30;;;1.95;;
64917;SDS011;52176;44.858;38.372;2023-03-08T06:27:07;4.55;;;1.80;;
64917;SDS011;52176;44.858;38.372;2023-03-08T06:29:36;2.20;;;1.60;;
64917;SDS011;52176;44.858;38.372;2023-03-08T06:32:02;2.67;;;1.75;;
64917;SDS011;52176;44.858;38.372;2023-03-08T06:34:30;2.95;;;1.70;;
64917;SDS011;52176;44.858;38.372;2023-03-08T06:36:57;5.40;;;1.73;;
64917;SDS011;52176;44.858;38.372;2023-03-08T06:39:25;2.20;;;1.65;;
64917;SDS011;52176;44.858;38.372;2023-03-08T06:41:56;1.83;;;1.40;;
64917;SDS011;52176;44.858;38.372;2023-03-08T06:44:22;3.22;;;1.80;;
64917;SDS011;52176;44.858;38.372;2023-03-08T06:46:48;2.97;;;1.70;;
64917;SDS011;52176;44.858;38.372;2023-03-08T15:37:43;5.30;;;2.38;;
64917;SDS011;52176;44.858;38.372;2023-03-08T15:40:10;6.68;;;1.92;;
64917;SDS011;52176;44.858;38.372;2023-03-08T15:42:38;3.80;;;1.42;;
64917;SDS011;52176;44.858;38.372;2023-03-08T15:45:04;3.03;;;1.58;;
64917;SDS011;52176;44.858;38.372;2023-03-08T15:47:30;6.78;;;1.55;;
64917;SDS011;52176;44.858;38.372;2023-03-08T15:49:56;2.58;;;1.40;;
64917;SDS011;52176;44.858;38.372;2023-03-08T16:16:45;5.05;;;2.10;;
64917;SDS011;52176;44.858;38.372;2023-03-08T17:15:21;47.22;;;17.80;;
64917;SDS011;52176;44.858;38.372;2023-03-08T17:17:47;58.70;;;24.63;;
64917;SDS011;52176;44.858;38.372;2023-03-08T17:20:13;56.30;;;21.77;;
64917;SDS011;52176;44.858;38.372;2023-03-08T17:22:39;35.70;;;13.88;;
64917;SDS011;52176;44.858;38.372;2023-03-08T17:25:05;25.70;;;11.13;;
64917;SDS011;52176;44.858;38.372;2023-03-08T17:27:32;31.10;;;10.23;;
64917;SDS011;52176;44.858;38.372;2023-03-08T17:29:58;27.00;;;11.38;;
64917;SDS011;52176;44.858;38.372;2023-03-08T17:32:25;36.75;;;13.90;;
64917;SDS011;52176;44.858;38.372;2023-03-08T17:34:51;38.33;;;14.90;;
64917;SDS011;52176;44.858;38.372;2023-03-08T17:37:17;52.40;;;20.25;;
64917;SDS011;52176;44.858;38.372;2023-03-08T17:39:43;70.32;;;26.60;;
64917;SDS011;52176;44.858;38.372;2023-03-08T17:42:09;38.72;;;17.05;;
64917;SDS011;52176;44.858;38.372;2023-03-08T17:44:35;35.10;;;13.73;;
64917;SDS011;52176;44.858;38.372;2023-03-08T17:47:01;31.45;;;10.05;;
64917;SDS011;52176;44.858;38.372;2023-03-08T17:49:27;19.05;;;7.93;;
64917;SDS011;52176;44.858;38.372;2023-03-08T17:51:53;13.30;;;7.28;;
64917;SDS011;52176;44.858;38.372;2023-03-08T17:54:20;19.42;;;8.20;;
64917;SDS011;52176;44.858;38.372;2023-03-08T17:56:46;19.13;;;8.38;;
64917;SDS011;52176;44.858;38.372;2023-03-08T17:59:13;8.95;;;4.85;;
64917;SDS011;52176;44.858;38.372;2023-03-08T18:01:40;11.45;;;4.75;;
64917;SDS011;52176;44.858;38.372;2023-03-08T18:04:06;10.77;;;4.57;;
64917;SDS011;52176;44.858;38.372;2023-03-08T18:09:13;9.88;;;4.80;;
64917;SDS011;52176;44.858;38.372;2023-03-08T18:11:40;7.00;;;3.70;;
64917;SDS011;52176;44.858;38.372;2023-03-08T18:14:08;4.80;;;2.38;;
64917;SDS011;52176;44.858;38.372;2023-03-08T18:16:36;3.55;;;1.88;;
64917;SDS011;52176;44.858;38.372;2023-03-08T18:19:03;2.72;;;1.70;;
64917;SDS011;52176;44.858;38.372;2023-03-08T18:21:30;2.25;;;1.58;;
64917;SDS011;52176;44.858;38.372;2023-03-08T18:23:58;2.85;;;1.38;;
64917;SDS011;52176;44.858;38.372;2023-03-08T18:26:24;3.60;;;1.60;;
64917;SDS011;52176;44.858;38.372;2023-03-08T18:28:50;5.10;;;1.15;;
64917;SDS011;52176;44.858;38.372;2023-03-08T18:31:17;2.17;;;1.20;;
64917;SDS011;52176;44.858;38.372;2023-03-08T18:33:48;2.45;;;1.40;;
64917;SDS011;52176;44.858;38.372;2023-03-08T18:36:14;2.28;;;1.50;;
64917;SDS011;52176;44.858;38.372;2023-03-08T18:38:41;1.75;;;1.25;;
64917;SDS011;52176;44.858;38.372;2023-03-08T18:41:26;1.77;;;1.23;;
64917;SDS011;52176;44.858;38.372;2023-03-08T18:43:54;3.75;;;1.25;;
64917;SDS011;52176;44.858;38.372;2023-03-08T18:46:21;3.38;;;1.35;;
64917;SDS011;52176;44.858;38.372;2023-03-08T18:49:14;8.88;;;1.60;;
64917;SDS011;52176;44.858;38.372;2023-03-08T18:51:39;2.95;;;1.50;;
64917;SDS011;52176;44.858;38.372;2023-03-08T18:54:08;2.15;;;1.40;;
64917;SDS011;52176;44.858;38.372;2023-03-08T18:56:37;9.25;;;1.60;;
64917;SDS011;52176;44.858;38.372;2023-03-08T18:59:04;5.25;;;1.50;;
64917;SDS011;52176;44.858;38.372;2023-03-08T19:01:31;5.03;;;1.40;;
64917;SDS011;52176;44.858;38.372;2023-03-08T19:03:58;5.75;;;1.60;;
64917;SDS011;52176;44.858;38.372;2023-03-08T19:06:27;4.95;;;1.92;;
64917;SDS011;52176;44.858;38.372;2023-03-08T19:08:53;9.40;;;2.40;;
64917;SDS011;52176;44.858;38.372;2023-03-08T19:11:21;7.70;;;2.92;;
64917;SDS011;52176;44.858;38.372;2023-03-08T19:13:48;4.18;;;2.05;;
64917;SDS011;52176;44.858;38.372;2023-03-08T19:16:18;4.07;;;1.95;;
64917;SDS011;52176;44.858;38.372;2023-03-08T19:18:54;4.65;;;1.80;;
64917;SDS011;52176;44.858;38.372;2023-03-08T19:21:23;2.08;;;1.30;;
64917;SDS011;52176;44.858;38.372;2023-03-08T19:23:53;4.53;;;1.77;;
64917;SDS011;52176;44.858;38.372;2023-03-08T19:26:21;11.35;;;2.28;;
64917;SDS011;52176;44.858;38.372;2023-03-08T19:29:11;2.58;;;1.35;;
64917;SDS011;52176;44.858;38.372;2023-03-08T19:31:45;2.20;;;1.55;;
64917;SDS011;52176;44.858;38.372;2023-03-08T19:34:15;2.83;;;1.55;;
64917;SDS011;52176;44.858;38.372;2023-03-08T19:36:44;1.95;;;1.33;;
64917;SDS011;52176;44.858;38.372;2023-03-08T19:39:15;4.78;;;2.00;;
64917;SDS011;52176;44.858;38.372;2023-03-08T19:41:46;4.53;;;2.72;;
64917;SDS011;52176;44.858;38.372;2023-03-08T19:44:13;6.20;;;3.03;;
64917;SDS011;52176;44.858;38.372;2023-03-08T19:46:39;6.20;;;3.30;;
64917;SDS011;52176;44.858;38.372;2023-03-08T19:49:07;8.35;;;3.45;;
64917;SDS011;52176;44.858;38.372;2023-03-08T19:51:36;4.93;;;2.97;;
64917;SDS011;52176;44.858;38.372;2023-03-08T19:54:02;7.75;;;3.13;;
64917;SDS011;52176;44.858;38.372;2023-03-08T19:56:30;6.38;;;3.03;;
64917;SDS011;52176;44.858;38.372;2023-03-08T19:58:56;5.00;;;3.10;;
64917;SDS011;52176;44.858;38.372;2023-03-08T20:01:25;7.65;;;3.67;;
64917;SDS011;52176;44.858;38.372;2023-03-08T20:03:52;5.65;;;3.42;;
64917;SDS011;52176;44.858;38.372;2023-03-08T20:06:26;5.15;;;2.80;;
64917;SDS011;52176;44.858;38.372;2023-03-08T20:08:58;6.20;;;2.40;;
64917;SDS011;52176;44.858;38.372;2023-03-08T20:11:24;6.15;;;2.70;;
64917;SDS011;52176;44.858;38.372;2023-03-08T20:17:44;5.97;;;2.38;;
64917;SDS011;52176;44.858;38.372;2023-03-08T20:20:10;4.25;;;2.30;;
64917;SDS011;52176;44.858;38.372;2023-03-08T20:22:37;10.05;;;2.70;;
64917;SDS011;52176;44.858;38.372;2023-03-08T20:25:03;8.65;;;4.00;;
64917;SDS011;52176;44.858;38.372;2023-03-08T20:27:29;8.63;;;3.92;;
64917;SDS011;52176;44.858;38.372;2023-03-08T20:29:55;6.60;;;3.55;;
64917;SDS011;52176;44.858;38.372;2023-03-08T20:32:21;6.47;;;3.58;;
64917;SDS011;52176;44.858;38.372;2023-03-08T20:34:48;8.07;;;3.63;;
64917;SDS011;52176;44.858;38.372;2023-03-08T20:37:13;6.10;;;3.17;;
64917;SDS011;52176;44.858;38.372;2023-03-08T20:39:39;8.48;;;3.90;;
64917;SDS011;52176;44.858;38.372;2023-03-08T20:42:05;15.40;;;4.60;;
64917;SDS011;52176;44.858;38.372;2023-03-08T20:44:31;10.52;;;4.22;;
64917;SDS011;52176;44.858;38.372;2023-03-08T20:46:57;10.55;;;5.43;;
64917;SDS011;52176;44.858;38.372;2023-03-08T20:49:23;10.35;;;5.43;;
64917;SDS011;52176;44.858;38.372;2023-03-08T20:51:50;9.15;;;3.95;;
64917;SDS011;52176;44.858;38.372;2023-03-08T20:54:16;6.90;;;4.03;;
64917;SDS011;52176;44.858;38.372;2023-03-08T20:56:43;8.32;;;3.85;;
64917;SDS011;52176;44.858;38.372;2023-03-08T20:59:09;6.57;;;3.35;;
64917;SDS011;52176;44.858;38.372;2023-03-08T21:01:35;7.80;;;3.60;;
64917;SDS011;52176;44.858;38.372;2023-03-08T21:04:01;9.75;;;3.80;;
64917;SDS011;52176;44.858;38.372;2023-03-08T21:06:29;8.25;;;4.20;;
64917;SDS011;52176;44.858;38.372;2023-03-08T21:08:56;7.18;;;3.15;;
64917;SDS011;52176;44.858;38.372;2023-03-08T21:11:23;6.13;;;2.83;;
64917;SDS011;52176;44.858;38.372;2023-03-08T21:13:49;8.77;;;3.17;;
64917;SDS011;52176;44.858;38.372;2023-03-08T21:16:17;7.53;;;2.13;;
64917;SDS011;52176;44.858;38.372;2023-03-08T21:18:51;3.63;;;2.42;;
64917;SDS011;52176;44.858;38.372;2023-03-08T21:21:26;5.93;;;2.80;;
64917;SDS011;52176;44.858;38.372;2023-03-08T21:23:55;4.50;;;2.53;;
64917;SDS011;52176;44.858;38.372;2023-03-08T21:26:23;6.63;;;2.97;;
64917;SDS011;52176;44.858;38.372;2023-03-08T21:28:50;5.63;;;3.00;;
64917;SDS011;52176;44.858;38.372;2023-03-08T21:31:27;5.75;;;3.03;;
64917;SDS011;52176;44.858;38.372;2023-03-08T21:33:59;4.97;;;2.70;;
64917;SDS011;52176;44.858;38.372;2023-03-08T21:36:26;4.93;;;3.10;;
64917;SDS011;52176;44.858;38.372;2023-03-08T21:38:52;9.60;;;3.30;;
64917;SDS011;52176;44.858;38.372;2023-03-08T21:41:24;8.05;;;3.00;;
64917;SDS011;52176;44.858;38.372;2023-03-08T21:43:55;5.15;;;3.00;;
64917;SDS011;52176;44.858;38.372;2023-03-08T21:46:21;5.85;;;2.50;;
64917;SDS011;52176;44.858;38.372;2023-03-08T21:48:48;4.30;;;2.20;;
64917;SDS011;52176;44.858;38.372;2023-03-08T21:51:14;3.25;;;2.30;;
64917;SDS011;52176;44.858;38.372;2023-03-08T21:53:40;5.10;;;2.65;;
64917;SDS011;52176;44.858;38.372;2023-03-08T21:56:07;3.63;;;2.58;;
64917;SDS011;52176;44.858;38.372;2023-03-08T21:58:35;4.93;;;2.75;;
64917;SDS011;52176;44.858;38.372;2023-03-08T22:01:01;3.80;;;2.80;;
64917;SDS011;52176;44.858;38.372;2023-03-08T22:03:27;6.95;;;2.70;;
64917;SDS011;52176;44.858;38.372;2023-03-08T22:05:59;3.28;;;2.65;;
64917;SDS011;52176;44.858;38.372;2023-03-08T22:08:25;3.58;;;2.50;;
64917;SDS011;52176;44.858;38.372;2023-03-08T22:10:52;5.00;;;2.58;;
64917;SDS011;52176;44.858;38.372;2023-03-08T22:13:19;4.07;;;2.50;;
64917;SDS011;52176;44.858;38.372;2023-03-08T22:15:45;5.85;;;2.70;;
64917;SDS011;52176;44.858;38.372;2023-03-08T22:18:11;8.60;;;2.65;;
64917;SDS011;52176;44.858;38.372;2023-03-08T22:20:37;3.95;;;2.63;;
64917;SDS011;52176;44.858;38.372;2023-03-08T22:23:03;4.25;;;2.70;;
64917;SDS011;52176;44.858;38.372;2023-03-08T22:25:29;4.00;;;2.90;;
64917;SDS011;52176;44.858;38.372;2023-03-08T22:27:55;5.30;;;2.72;;
64917;SDS011;52176;44.858;38.372;2023-03-08T22:30:21;4.20;;;2.60;;
64917;SDS011;52176;44.858;38.372;2023-03-08T22:32:47;6.82;;;2.70;;
64917;SDS011;52176;44.858;38.372;2023-03-08T22:35:13;7.15;;;2.88;;
64917;SDS011;52176;44.858;38.372;2023-03-08T22:37:39;4.68;;;2.90;;
64917;SDS011;52176;44.858;38.372;2023-03-08T22:40:06;8.00;;;2.80;;
64917;SDS011;52176;44.858;38.372;2023-03-08T22:42:37;4.68;;;2.75;;
64917;SDS011;52176;44.858;38.372;2023-03-08T22:45:04;6.15;;;2.85;;
64917;SDS011;52176;44.858;38.372;2023-03-08T22:47:31;6.25;;;3.38;;
64917;SDS011;52176;44.858;38.372;2023-03-08T22:49:57;5.63;;;3.00;;
64917;SDS011;52176;44.858;38.372;2023-03-08T22:52:23;3.60;;;2.58;;
64917;SDS011;52176;44.858;38.372;2023-03-08T22:54:49;3.88;;;2.90;;
64917;SDS011;52176;44.858;38.372;2023-03-08T22:57:15;4.88;;;3.05;;
64917;SDS011;52176;44.858;38.372;2023-03-08T22:59:43;3.33;;;2.50;;
64917;SDS011;52176;44.858;38.372;2023-03-08T23:02:12;4.35;;;2.90;;
64917;SDS011;52176;44.858;38.372;2023-03-08T23:04:38;5.88;;;2.90;;
64917;SDS011;52176;44.858;38.372;2023-03-08T23:07:05;4.97;;;2.78;;
64917;SDS011;52176;44.858;38.372;2023-03-08T23:09:32;4.93;;;2.85;;
64917;SDS011;52176;44.858;38.372;2023-03-08T23:11:58;4.88;;;3.03;;
64917;SDS011;52176;44.858;38.372;2023-03-08T23:14:27;5.40;;;3.28;;
64917;SDS011;52176;44.858;38.372;2023-03-08T23:16:53;5.72;;;3.28;;
64917;SDS011;52176;44.858;38.372;2023-03-08T23:19:19;6.63;;;3.17;;
64917;SDS011;52176;44.858;38.372;2023-03-08T23:21:46;4.75;;;2.67;;
64917;SDS011;52176;44.858;38.372;2023-03-08T23:24:13;3.65;;;2.60;;
64917;SDS011;52176;44.858;38.372;2023-03-08T23:26:40;4.55;;;2.88;;
64917;SDS011;52176;44.858;38.372;2023-03-08T23:29:10;3.88;;;2.92;;
64917;SDS011;52176;44.858;38.372;2023-03-08T23:31:40;3.80;;;2.75;;
64917;SDS011;52176;44.858;38.372;2023-03-08T23:34:08;4.03;;;2.70;;
64917;SDS011;52176;44.858;38.372;2023-03-08T23:36:35;5.90;;;3.10;;
64917;SDS011;52176;44.858;38.372;2023-03-08T23:39:02;4.03;;;2.90;;
64917;SDS011;52176;44.858;38.372;2023-03-08T23:41:28;4.68;;;2.90;;
64917;SDS011;52176;44.858;38.372;2023-03-08T23:43:56;2.92;;;2.53;;
64917;SDS011;52176;44.858;38.372;2023-03-08T23:46:24;4.80;;;2.90;;
64917;SDS011;52176;44.858;38.372;2023-03-08T23:48:50;4.43;;;2.72;;
64917;SDS011;52176;44.858;38.372;2023-03-08T23:51:19;5.53;;;3.10;;
64917;SDS011;52176;44.858;38.372;2023-03-08T23:53:47;3.97;;;2.80;;
64917;SDS011;52176;44.858;38.372;2023-03-08T23:56:18;7.45;;;3.30;;
64917;SDS011;52176;44.858;38.372;2023-03-08T23:58:57;4.57;;;3.20;;
